ADDS METAR Data INFO
IDs: Format: Raw Decoded Include TAF

Data at: 1148 UTC 25 Jun 2018

KHYI 251056Z AUTO 18007KT 10SM OVC010 26/23 A2995 RMK AO2 SLP131 T02560233 $
KHYI 250956Z AUTO 17010KT 10SM OVC012 26/23 A2993 RMK AO2 SLP122 T02560233 $
KHYI 250856Z AUTO 17011KT 10SM BKN014 BKN018 OVC033 26/23 A2992 RMK AO2 SLP118 T02560233 58009 $
KHYI 250756Z AUTO 16009KT 10SM OVC018 26/23 A2993 RMK AO2 SLP122 T02560233 $
KHYI 250656Z AUTO 16011KT 10SM BKN016 BKN021 OVC027 26/23 A2994 RMK AO2 SLP127 T02610233 $
KHYI 250629Z AUTO 15010KT 10SM SCT018 BKN025 OVC037 26/23 A2994 RMK AO2 $
KHYI 250612Z AUTO 15013KT 10SM SCT018 BKN035 26/23 A2994 RMK AO2 $
KHYI 250556Z AUTO 15010KT 10SM OVC016 27/23 A2994 RMK AO2 SLP129 T02670233 10328 20261 403610250 51016 $
KHYI 250456Z AUTO 14007KT 10SM BKN020 27/23 A2993 RMK AO2 SLP123 T02670233 $
KHYI 250453Z AUTO 15008KT 10SM BKN020 27/23 A2992 RMK AO2 $
KHYI 250356Z AUTO 15011KT 10SM CLR 27/23 A2990 RMK AO2 SLP112 T02670233 $
KHYI 250256Z AUTO 15008KT 10SM CLR 28/22 A2988 RMK AO2 SLP108 T02780222 53016 $
KHYI 250156Z AUTO 15012KT 8SM CLR 29/22 A2986 RMK AO2 SLP101 T02890217 $
KHYI 250056Z AUTO 14016G19KT 10SM CLR 31/23 A2984 RMK AO2 SLP093 T03110228 $
KHYI 242356Z AUTO 15017G20KT 10SM CLR 33/23 A2983 RMK AO2 SLP092 T03280228 10361 20328 56011 $
KHYI 242256Z 16015KT 10SM SCT050 34/22 A2984 RMK AO2 SLP094 T03390217 $
KHYI 242156Z 15016G22KT 10SM FEW055 35/22 A2984 RMK AO2 SLP094 T03500222 $
KHYI 242056Z 16017KT 10SM CLR 35/22 A2986 RMK AO2 SLP101 T03500222 56007 $
KHYI 241956Z 16012G21KT 10SM SCT055 36/22 A2987 RMK AO2 SLP102 T03560222 $
KHYI 241856Z 14015G20KT 10SM BKN050 34/22 A2988 RMK AO2 SLP106 T03440222 $
KHYI 241756Z 19015G20KT 10SM BKN044 33/22 A2988 RMK AO2 SLP109 T03330222 10339 20250 53002 $
KHYI 241656Z 18011KT 10SM FEW040 33/22 A2987 RMK AO2 SLP105 T03280222 $
KHYI 241556Z 19015G20KT 10SM SCT030 32/23 A2987 RMK AO2 SLP104 T03170228 $
KHYI 241503Z 19017G22KT 10SM CLR 29/22 A2987 RMK AO2 $
KHYI 241456Z 19017KT 10SM BKN023 29/22 A2988 RMK AO2 SLP108 T02940222 51009 $
KHYI 241440Z 19019G23KT 10SM BKN023 28/22 A2988 RMK AO2 $
KHYI 241428Z 20019G24KT 10SM FEW023 28/22 A2988 RMK AO2 $
KHYI 241356Z 18015KT 10SM BKN019 BKN025 28/23 A2987 RMK AO2 SLP106 T02830228 $
KHYI 241341Z 19015G24KT 10SM BKN017 27/23 A2987 RMK AO2 $
KHYI 241256Z 18013KT 10SM CLR 26/23 A2986 RMK AO2 SLP101 T02610233 $
KHYI 241156Z 17010KT 9SM CLR 25/23 A2985 RMK AO2 SLP098 T02500228 10267 20250 58008 $
KHYI 241056Z AUTO 18009KT 10SM FEW022 25/23 A2987 RMK AO2 SLP103 T02500233 $
KHYI 241024Z AUTO 17011KT 10SM SCT016 SCT042 26/23 A2987 RMK AO2 $
KHYI 240956Z AUTO 17008KT 10SM SCT018 BKN024 BKN032 26/24 A2988 RMK AO2 SLP106 T02610239 $
KHYI 240944Z AUTO 17009KT 10SM SCT019 BKN024 OVC040 26/24 A2989 RMK AO2 $
KHYI 240856Z AUTO 17009KT 10SM FEW019 SCT024 BKN045 26/24 A2987 RMK AO2 SLP104 T02610239 50001 $
KHYI 240843Z AUTO 17009KT 10SM FEW017 SCT022 OVC043 26/24 A2988 RMK AO2 $
KHYI 240756Z AUTO 19003KT 10SM BKN016 OVC032 27/24 A2991 RMK AO2 SLP116 T02670239 $
KHYI 240656Z AUTO 18010KT 10SM OVC018 26/24 A2989 RMK AO2 SLP109 T02610239 $
KHYI 240556Z AUTO 17010KT 10SM BKN018 26/23 A2987 RMK AO2 SLP105 T02610233 10328 20261 403610233 51028 $
KHYI 240546Z AUTO 18010KT 10SM BKN018 26/23 A2987 RMK AO2 $
KHYI 240503Z AUTO 17014G20KT 10SM SCT026 27/23 A2986 RMK AO2 $
KHYI 240456Z AUTO 17014G20KT 10SM FEW018 BKN028 27/23 A2986 RMK AO2 SLP101 T02720233 $
KHYI 240356Z AUTO 16012G19KT 10SM BKN017 OVC024 28/24 A2983 RMK AO2 SLP092 T02780244 $
KHYI 240256Z AUTO 15015G20KT 10SM BKN027 28/24 A2979 RMK AO2 SLP077 T02830244 53010 $
KHYI 240156Z AUTO 15014G20KT 10SM CLR 29/23 A2977 RMK AO2 SLP072 T02940233 $
KHYI 240056Z AUTO 15015G21KT 10SM CLR 31/23 A2976 RMK AO2 SLP068 T03110233 $
KHYI 232356Z AUTO 15016KT 10SM CLR 33/23 A2976 RMK AO2 SLP066 T03280228 10361 20328 56009 $